Time;durP1;ratioP1;P1;durP2;ratioP2;P2;SDS_P1;SDS_P2;PMS_P1;PMS_P2;Temp;Humidity;BMP_temperature;BMP_pressure;BME280_temperature;BME280_humidity;BME280_pressure;Samples;Min_cycle;Max_cycle;Signal;HPM_P1;HPM_P2
2023/04/27 00:01:11;;;;;;;123.60;115.75;;;3.90;99.90;;;;;;4983995;28;20041;-87
2023/04/27 00:03:37;;;;;;;108.85;101.95;;;3.90;99.90;;;;;;5005829;28;20048;-86
2023/04/27 00:06:02;;;;;;;120.13;112.53;;;5.10;99.90;;;;;;5001119;28;20120;-86
2023/04/27 00:08:28;;;;;;;125.10;117.05;;;4.00;99.90;;;;;;4992773;28;20048;-86
2023/04/27 00:10:54;;;;;;;54.85;50.72;;;3.90;99.90;;;;;;5009357;28;20375;-86
2023/04/27 00:13:20;;;;;;;128.23;120.15;;;3.90;99.90;;;;;;4993410;28;20508;-86
2023/04/27 00:15:46;;;;;;;107.75;101.30;;;3.90;99.90;;;;;;4992569;28;20057;-86
2023/04/27 00:18:11;;;;;;;48.55;44.72;;;3.80;99.90;;;;;;5008302;28;20580;-86
2023/04/27 00:20:37;;;;;;;48.70;45.38;;;3.70;99.90;;;;;;4992636;28;20428;-86
2023/04/27 00:23:03;;;;;;;112.57;105.70;;;3.50;1.00;;;;;;4993033;28;20073;-86
2023/04/27 00:25:28;;;;;;;58.33;54.33;;;3.60;1.00;;;;;;5009137;28;20521;-86
2023/04/27 00:27:54;;;;;;;125.15;117.40;;;3.50;1.00;;;;;;5008245;28;20567;-86
2023/04/27 00:30:19;;;;;;;55.70;51.85;;;3.50;1.00;;;;;;4992976;28;20037;-87
2023/04/27 00:32:45;;;;;;;130.60;122.75;;;3.50;1.00;;;;;;5007736;28;20037;-86
2023/04/27 00:35:11;;;;;;;57.20;53.30;;;3.50;1.00;;;;;;4992649;28;20052;-86
2023/04/27 00:37:36;;;;;;;49.80;46.40;;;3.50;1.00;;;;;;5002740;28;20510;-86
2023/04/27 00:40:05;;;;;;;92.63;86.45;;;3.50;1.00;;;;;;4993370;28;20050;-87
2023/04/27 00:42:31;;;;;;;50.22;46.30;;;3.50;1.00;;;;;;5008613;28;20061;-87
2023/04/27 00:44:57;;;;;;;86.97;81.10;;;3.40;4.40;;;;;;5008970;28;20091;-86
2023/04/27 00:47:24;;;;;;;87.90;82.18;;;3.30;47.70;;;;;;5003386;28;20099;-86
2023/04/27 00:49:50;;;;;;;61.70;57.28;;;3.30;87.30;;;;;;5004792;28;20040;-86
2023/04/27 00:52:16;;;;;;;53.80;50.10;;;3.20;99.90;;;;;;4992266;28;20531;-86
2023/04/27 00:54:42;;;;;;;47.83;44.53;;;3.20;99.90;;;;;;5009013;28;20077;-87
2023/04/27 00:57:07;;;;;;;48.65;45.28;;;3.20;99.90;;;;;;5005827;28;20041;-86
2023/04/27 00:59:33;;;;;;;55.65;51.72;;;3.30;99.90;;;;;;4973482;28;20116;-86
2023/04/27 01:02:00;;;;;;;56.67;52.60;;;3.40;99.90;;;;;;5003148;28;20050;-86
2023/04/27 01:04:27;;;;;;;50.58;46.92;;;3.40;1.00;;;;;;4991846;28;20070;-86
2023/04/27 01:06:53;;;;;;;77.45;72.43;;;3.50;1.00;;;;;;4989399;28;20042;-87
2023/04/27 01:09:19;;;;;;;44.08;40.53;;;3.60;1.00;;;;;;5010060;28;20489;-87
2023/04/27 01:11:45;;;;;;;47.97;44.53;;;3.70;17.40;;;;;;5027959;28;20052;-87
2023/04/27 01:14:11;;;;;;;91.35;85.50;;;3.70;78.20;;;;;;5012022;28;20507;-86
2023/04/27 01:16:37;;;;;;;47.47;44.08;;;3.80;99.90;;;;;;5027542;28;20046;-86
2023/04/27 01:19:03;;;;;;;87.63;81.82;;;3.80;99.90;;;;;;4978569;28;20049;-86
2023/04/27 01:21:29;;;;;;;38.60;35.63;;;3.90;99.90;;;;;;5005665;28;20529;-86
2023/04/27 01:23:55;;;;;;;42.60;39.70;;;3.80;99.90;;;;;;5008640;28;20045;-86
2023/04/27 01:26:21;;;;;;;93.93;87.70;;;4.00;99.90;;;;;;5008071;28;20042;-86
2023/04/27 01:28:47;;;;;;;86.13;80.45;;;3.90;99.90;;;;;;4988036;28;20045;-86
2023/04/27 01:31:13;;;;;;;98.78;92.05;;;4.20;99.90;;;;;;4991671;28;20518;-86
2023/04/27 01:33:39;;;;;;;51.53;47.60;;;4.00;99.90;;;;;;5008391;28;20502;-86
2023/04/27 01:36:06;;;;;;;43.30;40.10;;;4.00;99.90;;;;;;4988774;28;20046;-86
2023/04/27 01:38:32;;;;;;;94.32;88.28;;;4.00;99.90;;;;;;4989130;28;20059;-86
2023/04/27 01:41:00;;;;;;;42.45;39.42;;;4.00;99.90;;;;;;4972657;28;20529;-87
2023/04/27 01:43:30;;;;;;;40.13;37.20;;;4.00;99.90;;;;;;4988740;28;20456;-86
2023/04/27 01:46:06;;;;;;;35.53;32.88;;;4.10;99.90;;;;;;5006652;28;20494;-86
2023/04/27 01:48:32;;;;;;;46.13;42.88;;;4.10;99.90;;;;;;4971985;28;20045;-86
2023/04/27 01:50:58;;;;;;;41.28;38.35;;;4.10;99.90;;;;;;4972746;28;20502;-87
2023/04/27 01:53:23;;;;;;;41.83;38.75;;;4.10;99.90;;;;;;4984833;28;20048;-86
2023/04/27 01:55:49;;;;;;;39.65;36.70;;;4.10;99.90;;;;;;4980421;28;20042;-86
2023/04/27 01:58:15;;;;;;;43.45;40.25;;;4.20;99.90;;;;;;4997086;28;20652;-86
2023/04/27 02:00:40;;;;;;;100.55;94.47;;;4.20;99.90;;;;;;5007740;28;20041;-86
2023/04/27 02:03:06;;;;;;;47.08;43.70;;;4.20;99.90;;;;;;4987344;28;20118;-86
2023/04/27 02:05:31;;;;;;;122.57;115.18;;;4.20;99.90;;;;;;4991764;28;20398;-86
2023/04/27 02:07:57;;;;;;;84.65;79.13;;;4.20;99.90;;;;;;5009656;28;20037;-87
2023/04/27 02:10:22;;;;;;;81.20;75.95;;;4.20;99.90;;;;;;5027788;28;20152;-86
2023/04/27 02:12:48;;;;;;;46.45;43.25;;;4.30;99.90;;;;;;4994119;28;20046;-87
2023/04/27 02:15:14;;;;;;;49.75;46.15;;;4.30;99.90;;;;;;4991435;28;20049;-86
2023/04/27 02:17:39;;;;;;;86.38;80.97;;;4.30;99.90;;;;;;4990067;28;20048;-87
2023/04/27 02:20:06;;;;;;;46.60;43.08;;;4.30;99.90;;;;;;5008127;28;20042;-87
2023/04/27 02:22:31;;;;;;;88.82;83.13;;;4.40;99.90;;;;;;5007807;28;20593;-87
2023/04/27 02:24:58;;;;;;;114.70;107.38;;;4.40;99.90;;;;;;5012032;28;20053;-86
2023/04/27 02:27:24;;;;;;;47.72;44.33;;;4.50;99.90;;;;;;4993835;28;20042;-86
2023/04/27 02:29:49;;;;;;;45.05;41.55;;;4.50;99.90;;;;;;4976097;28;20081;-87
2023/04/27 02:32:15;;;;;;;95.00;89.13;;;4.60;99.90;;;;;;4974840;28;20042;-86
2023/04/27 02:34:41;;;;;;;42.88;39.83;;;4.60;99.90;;;;;;4984790;28;20045;-86
2023/04/27 02:37:06;;;;;;;40.92;37.40;;;4.50;99.90;;;;;;4994993;28;20433;-86
2023/04/27 02:39:32;;;;;;;113.60;106.68;;;4.40;99.90;;;;;;5011243;28;20062;-87
2023/04/27 02:41:58;;;;;;;48.65;45.17;;;4.40;99.90;;;;;;5002981;28;20477;-86
2023/04/27 02:44:23;;;;;;;46.97;43.63;;;4.40;99.90;;;;;;4979629;28;20088;-86
2023/04/27 02:46:49;;;;;;;110.60;103.80;;;4.50;99.90;;;;;;4993358;28;20046;-87
2023/04/27 02:49:15;;;;;;;79.45;73.78;;;4.50;99.90;;;;;;5008493;28;20034;-86
2023/04/27 02:51:41;;;;;;;141.60;133.00;;;4.60;99.90;;;;;;4994766;28;20476;-86
2023/04/27 02:54:07;;;;;;;47.03;43.30;;;4.60;99.90;;;;;;5011165;28;20137;-86
2023/04/27 02:56:33;;;;;;;140.63;131.90;;;4.60;99.90;;;;;;5010536;28;20489;-86
2023/04/27 02:58:58;;;;;;;127.43;119.68;;;4.50;99.90;;;;;;5009628;28;20050;-86
2023/04/27 03:01:24;;;;;;;125.32;117.68;;;4.60;99.90;;;;;;5025873;28;20505;-87
2023/04/27 03:03:50;;;;;;;39.65;36.45;;;4.50;99.90;;;;;;4993836;28;20494;-86
2023/04/27 03:06:15;;;;;;;122.30;114.45;;;4.60;99.90;;;;;;4991437;28;20052;-86
2023/04/27 03:08:41;;;;;;;50.55;46.92;;;4.50;99.90;;;;;;4980241;28;20149;-87
2023/04/27 03:11:08;;;;;;;44.92;41.72;;;4.50;99.90;;;;;;5010783;28;20099;-86
2023/04/27 03:13:40;;;;;;;145.55;136.52;;;4.50;99.90;;;;;;5008278;28;20050;-86
2023/04/27 03:16:06;;;;;;;40.03;36.60;;;4.40;99.90;;;;;;4993219;28;20045;-86
2023/04/27 03:18:32;;;;;;;127.68;119.55;;;4.50;99.90;;;;;;4980760;28;20050;-87
2023/04/27 03:21:11;;;;;;;111.55;103.85;;;4.50;99.90;;;;;;5010400;28;20054;-86
2023/04/27 03:23:37;;;;;;;50.20;46.80;;;4.40;99.90;;;;;;5018365;28;20394;-86
2023/04/27 03:26:07;;;;;;;87.82;82.10;;;4.30;99.90;;;;;;5013911;28;20045;-86
2023/04/27 03:28:33;;;;;;;57.58;52.97;;;4.30;99.90;;;;;;4994191;28;20069;-87
2023/04/27 03:30:59;;;;;;;52.60;48.72;;;4.20;99.90;;;;;;5009517;28;20050;-86
2023/04/27 03:33:25;;;;;;;48.20;44.30;;;4.10;99.90;;;;;;4981796;28;20130;-86
2023/04/27 03:35:56;;;;;;;49.80;46.25;;;4.20;99.90;;;;;;5012200;28;20045;-86
2023/04/27 03:38:22;;;;;;;88.45;82.88;;;4.10;99.90;;;;;;5030051;28;20107;-86
2023/04/27 03:40:47;;;;;;;81.18;75.78;;;4.00;97.80;;;;;;5029875;28;20571;-86
2023/04/27 03:43:13;;;;;;;66.50;62.00;;;4.00;98.80;;;;;;5002736;28;20041;-86
2023/04/27 03:45:38;;;;;;;49.95;46.20;;;4.00;99.90;;;;;;4993238;28;20038;-86
2023/04/27 03:48:04;;;;;;;41.47;38.38;;;4.70;99.90;;;;;;4996909;28;20069;-86
2023/04/27 03:50:30;;;;;;;42.83;39.50;;;4.00;99.90;;;;;;4990321;28;20070;-86
2023/04/27 03:52:56;;;;;;;87.45;81.18;;;4.00;99.90;;;;;;4997857;28;20068;-86
2023/04/27 03:55:21;;;;;;;42.90;39.47;;;4.00;99.90;;;;;;4993787;28;20041;-86
2023/04/27 03:57:47;;;;;;;73.82;68.72;;;4.00;99.90;;;;;;4993469;28;20132;-86
2023/04/27 04:00:14;;;;;;;42.05;38.97;;;4.00;99.90;;;;;;4993652;28;20061;-86
2023/04/27 04:02:40;;;;;;;38.85;35.75;;;3.90;99.90;;;;;;5005920;28;20042;-87
2023/04/27 04:05:07;;;;;;;38.47;35.72;;;4.00;99.90;;;;;;5009754;28;20069;-86
2023/04/27 04:07:33;;;;;;;40.38;37.42;;;4.00;99.90;;;;;;5009812;28;20104;-86
2023/04/27 04:09:58;;;;;;;102.97;96.40;;;3.90;99.90;;;;;;4993724;28;20073;-86
2023/04/27 04:12:24;;;;;;;42.20;38.90;;;3.90;99.90;;;;;;5015775;28;21372;-87
2023/04/27 04:14:50;;;;;;;91.28;85.32;;;3.80;99.90;;;;;;4990009;28;20050;-86
2023/04/27 04:17:15;;;;;;;45.17;41.83;;;3.70;99.90;;;;;;4972546;28;20454;-86
2023/04/27 04:19:41;;;;;;;65.93;61.30;;;3.80;99.90;;;;;;4990463;28;20042;-86
2023/04/27 04:22:07;;;;;;;45.58;42.22;;;3.80;99.90;;;;;;4989868;28;20050;-86
2023/04/27 04:24:33;;;;;;;40.80;37.80;;;3.80;99.90;;;;;;4974391;28;20117;-86
2023/04/27 04:26:58;;;;;;;42.83;39.60;;;3.90;99.90;;;;;;4979579;28;20157;-86
2023/04/27 04:29:24;;;;;;;42.72;39.38;;;4.00;1.00;;;;;;5009430;28;20034;-86
2023/04/27 04:31:50;;;;;;;39.50;36.25;;;4.00;1.00;;;;;;4991285;28;20103;-86
2023/04/27 04:34:16;;;;;;;40.63;37.38;;;4.60;1.00;;;;;;4992517;28;20120;-86
2023/04/27 04:36:42;;;;;;;61.85;57.45;;;4.00;1.00;;;;;;4989639;28;20046;-86
2023/04/27 04:39:07;;;;;;;73.75;68.97;;;4.10;1.00;;;;;;4973447;28;20077;-86
2023/04/27 04:41:33;;;;;;;73.18;68.25;;;4.00;1.00;;;;;;4989415;28;20137;-86
2023/04/27 04:43:59;;;;;;;38.40;35.65;;;4.00;1.00;;;;;;4999731;28;20560;-86
2023/04/27 04:46:25;;;;;;;70.50;65.72;;;4.00;1.00;;;;;;5007313;28;20057;-86
2023/04/27 04:48:50;;;;;;;72.28;67.20;;;4.10;1.00;;;;;;4984557;28;20495;-86
2023/04/27 04:51:16;;;;;;;37.08;34.33;;;4.10;1.00;;;;;;4992367;28;20037;-86
2023/04/27 04:53:42;;;;;;;37.58;34.30;;;4.10;1.00;;;;;;4985984;28;20071;-86
2023/04/27 04:56:12;;;;;;;47.13;43.72;;;4.00;1.00;;;;;;5007362;28;20042;-86
2023/04/27 04:58:38;;;;;;;45.65;42.22;;;4.00;1.00;;;;;;5035016;28;20041;-86
2023/04/27 05:01:04;;;;;;;43.10;40.10;;;3.90;1.00;;;;;;5023594;28;20040;-86
2023/04/27 05:03:30;;;;;;;54.00;49.50;;;4.00;1.00;;;;;;4989981;28;20049;-86
2023/04/27 05:05:55;;;;;;;50.03;46.33;;;4.00;4.10;;;;;;4989701;28;20034;-86
2023/04/27 05:08:21;;;;;;;60.30;56.20;;;4.00;33.20;;;;;;5007280;28;20042;-86
2023/04/27 05:10:51;;;;;;;59.63;55.63;;;4.10;57.30;;;;;;4975783;28;20526;-86
2023/04/27 05:13:17;;;;;;;37.38;33.85;;;4.10;88.50;;;;;;4992506;28;20037;-86
2023/04/27 05:15:43;;;;;;;55.60;51.60;;;5.40;99.90;;;;;;4992007;28;20137;-86
2023/04/27 05:18:08;;;;;;;60.58;56.33;;;4.20;99.90;;;;;;5008118;28;20038;-86
2023/04/27 05:20:34;;;;;;;38.63;35.75;;;5.10;99.90;;;;;;4991024;28;20046;-86
2023/04/27 05:23:01;;;;;;;63.13;58.88;;;4.40;99.90;;;;;;4989171;28;20042;-86
2023/04/27 05:25:32;;;;;;;55.15;51.15;;;4.40;99.90;;;;;;4992134;28;20037;-86
2023/04/27 05:27:58;;;;;;;75.32;70.25;;;4.40;99.90;;;;;;5001056;28;20144;-87
2023/04/27 05:30:23;;;;;;;37.45;34.78;;;4.40;99.90;;;;;;4993763;28;20121;-86
2023/04/27 05:32:49;;;;;;;71.40;66.68;;;4.70;99.90;;;;;;4992393;28;20030;-86
2023/04/27 05:35:15;;;;;;;37.40;34.40;;;4.50;99.90;;;;;;4973383;28;20042;-86
2023/04/27 05:37:40;;;;;;;71.75;67.05;;;6.40;99.90;;;;;;5001976;28;20049;-88
2023/04/27 05:40:08;;;;;;;42.25;38.28;;;4.50;99.90;;;;;;4981888;28;20125;-90
2023/04/27 05:42:35;;;;;;;37.22;34.13;;;4.50;99.90;;;;;;4987259;28;20069;-86
2023/04/27 05:45:02;;;;;;;44.85;41.38;;;4.70;99.90;;;;;;4990084;28;20080;-86
2023/04/27 05:47:27;;;;;;;48.55;45.10;;;4.80;1.00;;;;;;5006914;28;20046;-86
2023/04/27 05:49:53;;;;;;;65.78;61.38;;;4.80;1.00;;;;;;4984734;28;20030;-86
2023/04/27 05:52:19;;;;;;;43.95;39.92;;;5.00;1.00;;;;;;5008215;28;20038;-86
2023/04/27 05:54:49;;;;;;;60.22;56.13;;;5.10;1.00;;;;;;4992052;28;20478;-86
2023/04/27 05:57:14;;;;;;;55.05;51.13;;;6.90;43.10;;;;;;4990559;28;20502;-85
2023/04/27 05:59:41;;;;;;;54.78;50.58;;;5.30;99.90;;;;;;4993466;28;20065;-85
2023/04/27 06:02:07;;;;;;;66.45;61.75;;;5.40;99.90;;;;;;4991920;28;20175;-86
2023/04/27 06:04:34;;;;;;;76.05;70.80;;;5.50;99.90;;;;;;4995567;28;20044;-86
2023/04/27 06:07:00;;;;;;;85.25;79.25;;;5.60;99.90;;;;;;5012253;28;20034;-86
2023/04/27 06:09:25;;;;;;;69.47;64.90;;;5.70;99.90;;;;;;4994864;28;20034;-86
2023/04/27 06:11:51;;;;;;;79.05;73.72;;;5.80;99.90;;;;;;4994710;28;20042;-86
2023/04/27 06:14:16;;;;;;;80.70;75.07;;;6.00;1.00;;;;;;4995411;28;20140;-86
2023/04/27 06:16:42;;;;;;;98.40;91.22;;;6.10;1.00;;;;;;5010702;28;20510;-86
2023/04/27 06:19:08;;;;;;;94.20;87.97;;;6.20;1.00;;;;;;5005505;28;20171;-86
2023/04/27 06:21:34;;;;;;;72.65;67.53;;;6.40;1.00;;;;;;4991966;28;20125;-85
2023/04/27 06:24:00;;;;;;;72.88;67.97;;;6.60;1.00;;;;;;5008705;28;20042;-85
2023/04/27 06:26:27;;;;;;;80.72;74.63;;;6.80;1.00;;;;;;5006657;28;20136;-86
2023/04/27 06:28:53;;;;;;;99.95;92.28;;;7.00;1.00;;;;;;5007171;28;20038;-85
2023/04/27 06:31:19;;;;;;;102.63;95.43;;;7.00;1.00;;;;;;4993266;28;20037;-86
2023/04/27 06:33:45;;;;;;;101.07;94.05;;;7.10;1.00;;;;;;5005778;28;20081;-85
2023/04/27 06:36:10;;;;;;;87.10;80.55;;;7.10;99.90;;;;;;5014395;28;20042;-85
2023/04/27 06:38:36;;;;;;;103.07;95.97;;;7.30;99.90;;;;;;4991748;28;20054;-86
2023/04/27 06:41:02;;;;;;;123.28;115.10;;;7.40;99.90;;;;;;5001387;28;20513;-86
2023/04/27 06:43:29;;;;;;;111.97;104.57;;;7.60;99.90;;;;;;5009816;28;20041;-86
2023/04/27 06:45:54;;;;;;;136.30;127.30;;;7.80;99.90;;;;;;4991224;28;20441;-87
2023/04/27 06:48:20;;;;;;;158.35;148.45;;;8.30;99.90;;;;;;5006551;28;20042;-86
2023/04/27 06:50:46;;;;;;;150.02;140.40;;;9.40;59.80;;;;;;5004151;28;20049;-86
2023/04/27 06:53:11;;;;;;;156.90;147.07;;;7.80;1.00;;;;;;4988379;28;20054;-86
2023/04/27 06:55:38;;;;;;;130.65;122.53;;;7.90;99.90;;;;;;5009062;28;20042;-87
2023/04/27 06:58:03;;;;;;;238.15;223.20;;;9.90;99.90;;;;;;4992042;28;20116;-88
2023/04/27 07:00:30;;;;;;;232.50;217.45;;;8.20;61.40;;;;;;5000686;28;20045;-87
2023/04/27 07:02:55;;;;;;;163.35;152.75;;;8.30;1.00;;;;;;5005000;28;20407;-89
2023/04/27 07:05:21;;;;;;;179.13;167.63;;;8.40;99.90;;;;;;5003327;28;20100;-89
2023/04/27 07:07:47;;;;;;;145.45;135.32;;;8.60;99.90;;;;;;4998189;28;20038;-89
2023/04/27 07:10:13;;;;;;;171.05;160.30;;;10.00;59.40;;;;;;4983062;28;20034;-89
2023/04/27 07:12:39;;;;;;;157.18;147.00;;;8.90;1.00;;;;;;5010410;28;20569;-89
2023/04/27 07:15:06;;;;;;;213.20;199.73;;;9.10;99.90;;;;;;5008889;28;20046;-88
2023/04/27 07:17:34;;;;;;;147.60;137.65;;;9.30;59.30;;;;;;4993305;28;20521;-88
2023/04/27 07:20:01;;;;;;;159.05;148.52;;;9.30;1.00;;;;;;5006815;28;20053;-88
2023/04/27 07:22:27;;;;;;;221.25;207.70;;;9.70;99.90;;;;;;4980946;28;20406;-89
2023/04/27 07:24:53;;;;;;;106.28;98.95;;;10.70;99.90;;;;;;4992990;28;20728;-89
2023/04/27 07:27:19;;;;;;;144.57;135.32;;;11.50;17.10;;;;;;5009867;28;20034;-88
2023/04/27 07:29:44;;;;;;;137.75;128.63;;;10.50;1.00;;;;;;5009859;28;20494;-89
2023/04/27 07:32:10;;;;;;;98.18;91.10;;;10.80;99.90;;;;;;4992588;28;20132;-88
2023/04/27 07:34:36;;;;;;;106.90;99.45;;;12.70;99.90;;;;;;4994314;28;20049;-89
2023/04/27 07:37:02;;;;;;;109.30;101.30;;;12.90;99.90;;;;;;4994685;28;20529;-88
2023/04/27 07:39:28;;;;;;;101.45;94.35;;;11.00;94.70;;;;;;5008894;28;20138;-89
2023/04/27 07:41:53;;;;;;;115.57;107.45;;;12.70;17.80;;;;;;4991037;28;20628;-89
2023/04/27 07:44:20;;;;;;;95.07;88.25;;;11.30;1.00;;;;;;5008543;28;20038;-89
2023/04/27 07:46:47;;;;;;;79.25;73.78;;;13.00;1.00;;;;;;4992749;28;20125;-89
2023/04/27 07:49:14;;;;;;;121.78;113.15;;;11.30;1.00;;;;;;5010260;28;20156;-88
2023/04/27 07:51:39;;;;;;;66.05;60.88;;;11.50;1.00;;;;;;4975121;28;20050;-90
2023/04/27 07:54:05;;;;;;;23.30;21.35;;;11.80;1.00;;;;;;5008627;28;20048;-89
2023/04/27 07:56:31;;;;;;;35.50;31.83;;;11.90;99.90;;;;;;4992410;28;20531;-88
2023/04/27 07:58:57;;;;;;;22.35;19.67;;;13.70;99.90;;;;;;4974581;28;20078;-88
2023/04/27 08:01:23;;;;;;;32.58;29.30;;;13.90;99.90;;;;;;4973449;28;20074;-89
2023/04/27 08:03:49;;;;;;;23.38;21.33;;;12.30;99.90;;;;;;4993666;28;20034;-88
2023/04/27 08:06:14;;;;;;;24.73;22.30;;;14.00;99.90;;;;;;5007188;28;20046;-89
2023/04/27 08:08:40;;;;;;;25.25;22.90;;;13.90;99.90;;;;;;4993322;28;20136;-88
2023/04/27 08:11:09;;;;;;;22.52;20.20;;;14.30;99.90;;;;;;4992897;28;20049;-88
2023/04/27 08:13:35;;;;;;;14.70;13.45;;;14.50;99.90;;;;;;5009303;28;20044;-88
2023/04/27 08:16:00;;;;;;;15.07;13.52;;;14.50;99.90;;;;;;5009037;28;20577;-88
2023/04/27 08:18:26;;;;;;;19.17;17.60;;;13.00;99.90;;;;;;4992656;28;20683;-89
2023/04/27 08:20:52;;;;;;;16.88;15.18;;;12.90;99.90;;;;;;4989966;28;20528;-88
2023/04/27 08:23:18;;;;;;;20.45;18.42;;;12.90;99.90;;;;;;5009788;28;20418;-89
2023/04/27 08:25:44;;;;;;;14.15;12.35;;;13.80;99.90;;;;;;5009321;28;20137;-88
2023/04/27 08:28:09;;;;;;;16.63;14.93;;;14.70;99.90;;;;;;4993053;28;20401;-88
2023/04/27 08:30:35;;;;;;;16.13;10.63;;;14.50;99.90;;;;;;4999205;28;20072;-88
2023/04/27 08:33:00;;;;;;;17.25;13.85;;;12.70;78.80;;;;;;4992823;28;20030;-88
2023/04/27 08:35:26;;;;;;;8.60;7.70;;;12.70;69.30;;;;;;4993730;28;20050;-88
2023/04/27 08:37:53;;;;;;;14.23;13.00;;;13.00;80.50;;;;;;4980093;28;20465;-88
2023/04/27 08:40:19;;;;;;;16.45;14.80;;;13.10;61.60;;;;;;4974049;28;20042;-87
2023/04/27 08:42:57;;;;;;;12.00;10.27;;;13.20;38.80;;;;;;4989697;28;20533;-89
2023/04/27 08:45:24;;;;;;;13.85;10.10;;;12.70;18.10;;;;;;4990001;28;20152;-88
2023/04/27 08:47:50;;;;;;;9.95;8.38;;;12.80;26.10;;;;;;4976270;28;20030;-89
2023/04/27 08:50:17;;;;;;;15.25;13.95;;;13.30;22.10;;;;;;4995801;28;20042;-89
2023/04/27 08:52:47;;;;;;;15.38;13.98;;;13.10;22.90;;;;;;5008937;28;20559;-89
2023/04/27 08:55:13;;;;;;;16.00;14.20;;;14.50;19.80;;;;;;4993402;28;20137;-89
2023/04/27 08:57:38;;;;;;;15.05;13.80;;;13.50;1.00;;;;;;5005402;28;20112;-89
2023/04/27 09:00:12;;;;;;;11.40;10.30;;;12.70;1.00;;;;;;4991305;28;20038;-89
2023/04/27 09:02:45;;;;;;;12.95;11.75;;;12.80;1.00;;;;;;5007126;28;20483;-89
2023/04/27 09:05:18;;;;;;;13.20;11.93;;;13.00;1.00;;;;;;4992587;28;20099;-88
2023/04/27 09:08:04;;;;;;;10.80;9.85;;;12.80;1.00;;;;;;5008653;28;20117;-88
2023/04/27 09:10:30;;;;;;;15.00;13.27;;;13.60;1.00;;;;;;5000288;28;20046;-89
2023/04/27 09:12:58;;;;;;;14.90;13.55;;;12.50;1.00;;;;;;5008594;28;20045;-88
2023/04/27 09:15:23;;;;;;;13.05;11.98;;;12.70;1.00;;;;;;4992573;28;20456;-88
2023/04/27 09:17:54;;;;;;;11.70;10.27;;;12.60;1.00;;;;;;4991354;28;20050;-88
2023/04/27 09:20:20;;;;;;;12.45;10.35;;;12.80;1.00;;;;;;5007358;28;20096;-90
2023/04/27 09:22:56;;;;;;;11.07;10.02;;;12.70;1.00;;;;;;4988925;28;20078;-88
2023/04/27 09:25:26;;;;;;;9.48;8.18;;;12.60;1.00;;;;;;4993203;28;20426;-89
2023/04/27 09:27:52;;;;;;;11.88;10.90;;;12.60;1.00;;;;;;4983785;28;20073;-88
2023/04/27 09:30:18;;;;;;;12.15;10.90;;;12.50;1.00;;;;;;5008121;28;20042;-90
2023/04/27 09:33:02;;;;;;;14.63;13.35;;;12.70;1.00;;;;;;4986910;28;20064;-88
2023/04/27 09:35:30;;;;;;;13.85;12.63;;;12.70;1.00;;;;;;4987903;28;20073;-89
2023/04/27 09:37:56;;;;;;;11.43;10.35;;;14.00;1.00;;;;;;4992279;28;20068;-89
2023/04/27 09:40:28;;;;;;;11.73;10.73;;;12.50;1.00;;;;;;5008837;28;20053;-89
2023/04/27 09:42:55;;;;;;;14.00;12.82;;;12.60;1.00;;;;;;4996643;28;20194;-89
2023/04/27 09:45:22;;;;;;;12.55;11.32;;;12.70;1.00;;;;;;4976741;28;20042;-88
2023/04/27 09:47:48;;;;;;;9.93;6.70;;;13.40;1.00;;;;;;4977902;28;20038;-89
2023/04/27 09:50:14;;;;;;;9.48;8.50;;;12.60;1.00;;;;;;5009899;28;20408;-88
2023/04/27 09:52:40;;;;;;;13.18;11.85;;;13.60;1.00;;;;;;5006862;28;20074;-89
2023/04/27 09:55:10;;;;;;;13.25;11.95;;;14.60;1.00;;;;;;4987151;28;20145;-88
2023/04/27 09:57:47;;;;;;;14.73;13.43;;;12.70;1.00;;;;;;4999682;28;20092;-89
2023/04/27 10:01:00;;;;;;;9.85;8.95;;;12.80;1.00;;;;;;4990578;28;20074;-89
2023/04/27 10:03:49;;;;;;;12.77;11.70;;;13.00;1.00;;;;;;4926930;29;20131;-90
2023/04/27 10:06:36;;;;;;;12.00;10.73;;;13.00;1.00;;;;;;4995564;28;20125;-89
2023/04/27 10:09:05;;;;;;;11.65;10.65;;;13.10;1.00;;;;;;5002034;28;20585;-89
2023/04/27 10:11:46;;;;;;;11.75;10.75;;;13.00;1.00;;;;;;4991015;28;20069;-89
2023/04/27 10:14:26;;;;;;;10.23;6.65;;;13.10;1.00;;;;;;4987732;28;20506;-89
2023/04/27 10:16:54;;;;;;;11.07;9.25;;;12.90;1.00;;;;;;4974956;28;20061;-89
2023/04/27 10:19:22;;;;;;;11.43;10.38;;;12.90;1.00;;;;;;5009038;28;20130;-88
2023/04/27 10:22:06;;;;;;;8.43;7.60;;;12.90;1.00;;;;;;4994013;28;20141;-89
2023/04/27 10:24:45;;;;;;;9.38;8.48;;;14.00;1.00;;;;;;4989180;28;20406;-89
2023/04/27 10:27:17;;;;;;;7.15;5.70;;;14.30;1.00;;;;;;4986381;28;20502;-90
2023/04/27 10:29:45;;;;;;;10.27;6.55;;;13.00;1.00;;;;;;4989233;28;20117;-89
2023/04/27 10:32:18;;;;;;;6.70;5.13;;;12.90;1.00;;;;;;4993403;28;20077;-89
2023/04/27 10:34:46;;;;;;;6.72;5.15;;;13.10;1.00;;;;;;4979191;28;20081;-89
2023/04/27 10:37:13;;;;;;;9.57;6.50;;;13.20;1.00;;;;;;5008635;28;20429;-89
2023/04/27 10:39:43;;;;;;;8.38;7.60;;;15.00;1.00;;;;;;5002281;28;20140;-81
2023/04/27 10:42:10;;;;;;;7.78;6.10;;;13.50;1.00;;;;;;5005872;28;20487;-90
2023/04/27 10:44:36;;;;;;;6.70;5.43;;;13.60;1.00;;;;;;4993518;28;20108;-89
2023/04/27 10:47:13;;;;;;;6.97;5.95;;;13.70;1.00;;;;;;4991812;28;20092;-89
2023/04/27 10:49:39;;;;;;;8.18;7.47;;;14.30;1.00;;;;;;4986222;28;20033;-89
2023/04/27 10:52:05;;;;;;;12.18;5.63;;;13.80;1.00;;;;;;4994842;28;20042;-89
2023/04/27 10:54:31;;;;;;;6.22;4.95;;;13.70;1.00;;;;;;5010897;28;20563;-89
2023/04/27 10:57:08;;;;;;;8.50;5.63;;;14.70;1.00;;;;;;4982771;28;20099;-89
2023/04/27 10:59:35;;;;;;;6.60;4.68;;;13.60;1.00;;;;;;4992674;28;20141;-89
2023/04/27 11:02:01;;;;;;;11.18;7.97;;;13.70;1.00;;;;;;5009157;28;20053;-89
2023/04/27 11:04:40;;;;;;;7.35;4.82;;;13.70;1.00;;;;;;4994426;28;20037;-89
2023/04/27 11:07:07;;;;;;;10.27;5.75;;;15.40;1.00;;;;;;5010256;28;20029;-89
2023/04/27 11:09:35;;;;;;;5.63;5.07;;;13.70;1.00;;;;;;5000102;28;20038;-87
2023/04/27 11:12:01;;;;;;;10.10;5.57;;;13.70;1.00;;;;;;5008299;28;20050;-87
2023/04/27 11:14:27;;;;;;;7.38;5.43;;;13.70;1.00;;;;;;4998885;28;20076;-87
2023/04/27 11:16:53;;;;;;;10.82;4.72;;;13.70;1.00;;;;;;5008359;28;20297;-87
2023/04/27 11:19:19;;;;;;;7.80;4.65;;;13.70;1.00;;;;;;4999430;28;20053;-87
2023/04/27 11:21:44;;;;;;;8.27;5.22;;;13.80;1.00;;;;;;5010235;28;20037;-87
2023/04/27 11:24:10;;;;;;;7.18;5.93;;;13.70;1.00;;;;;;5001372;28;20707;-88
2023/04/27 11:26:36;;;;;;;8.25;7.22;;;13.70;1.00;;;;;;5010263;28;20033;-87
2023/04/27 11:29:08;;;;;;;10.05;6.00;;;13.70;1.00;;;;;;5010552;28;20040;-87
2023/04/27 11:31:42;;;;;;;9.38;5.13;;;13.70;1.00;;;;;;4988395;28;20490;-87
2023/04/27 11:34:13;;;;;;;6.70;5.20;;;14.00;1.00;;;;;;5002979;28;20038;-87
2023/04/27 11:36:39;;;;;;;9.75;5.68;;;14.80;1.00;;;;;;4990933;28;20053;-87
2023/04/27 11:39:05;;;;;;;7.28;4.78;;;13.90;1.00;;;;;;4977671;28;20394;-87
2023/04/27 11:41:35;;;;;;;8.38;5.22;;;15.60;1.00;;;;;;4974889;28;20038;-88
2023/04/27 11:44:06;;;;;;;7.60;5.55;;;13.90;1.00;;;;;;4977029;28;20038;-88
2023/04/27 11:46:35;;;;;;;10.32;5.80;;;13.80;1.00;;;;;;5001779;28;20407;-87
2023/04/27 11:49:03;;;;;;;9.63;4.97;;;13.80;1.00;;;;;;4977108;28;20041;-87
2023/04/27 11:51:31;;;;;;;8.82;7.97;;;13.90;1.00;;;;;;5009389;28;20050;-87
2023/04/27 11:54:06;;;;;;;12.52;8.27;;;13.90;1.00;;;;;;5009872;28;20513;-87
2023/04/27 11:56:38;;;;;;;9.02;6.60;;;13.80;1.00;;;;;;4992941;28;20045;-87
2023/04/27 11:59:05;;;;;;;12.27;4.95;;;13.70;1.00;;;;;;4993411;28;20081;-87
2023/04/27 12:01:33;;;;;;;7.50;6.47;;;13.70;1.00;;;;;;4992268;28;20034;-87
2023/04/27 12:04:01;;;;;;;10.38;5.28;;;13.70;1.00;;;;;;5004227;28;20073;-87
2023/04/27 12:06:28;;;;;;;8.70;5.63;;;13.70;1.00;;;;;;5010084;28;20045;-88
2023/04/27 12:08:56;;;;;;;7.80;5.63;;;13.70;1.00;;;;;;4989831;28;20133;-87
2023/04/27 12:11:26;;;;;;;8.40;5.47;;;13.80;1.00;;;;;;5007907;28;20042;-87
2023/04/27 12:13:52;;;;;;;6.22;5.22;;;14.50;99.90;;;;;;5009659;28;20076;-90
2023/04/27 12:16:20;;;;;;;8.73;5.95;;;13.70;99.90;;;;;;5007932;28;20498;-87
2023/04/27 12:18:46;;;;;;;7.20;5.20;;;13.70;99.90;;;;;;4993151;28;20096;-87
2023/04/27 12:21:13;;;;;;;11.63;6.20;;;13.80;99.90;;;;;;4991778;28;20041;-88
2023/04/27 12:23:38;;;;;;;11.38;7.20;;;13.80;99.90;;;;;;4989838;28;20053;-87
2023/04/27 12:26:04;;;;;;;8.20;5.45;;;13.70;99.90;;;;;;5002407;28;20042;-87
2023/04/27 12:28:36;;;;;;;8.25;6.18;;;13.60;99.90;;;;;;5087248;27;20503;-65
2023/04/27 12:31:03;;;;;;;8.32;6.32;;;13.70;99.90;;;;;;5070138;28;20495;-64
2023/04/27 12:33:29;;;;;;;9.27;5.72;;;13.70;99.90;;;;;;5049517;28;20259;-65
2023/04/27 12:35:54;;;;;;;9.38;5.72;;;13.50;99.90;;;;;;5065914;28;20036;-64
2023/04/27 12:38:21;;;;;;;11.25;7.50;;;13.40;99.90;;;;;;5062692;28;20045;-65